ADDS METAR Data INFO
IDs: Format: Raw Decoded Include TAF

Data at: 0856 UTC 19 Jun 2018

KDLN 190853Z AUTO 00000KT 10SM FEW060 BKN075 09/09 A3008 RMK AO2 SLP155 60000 T00940089 58002
KDLN 190753Z AUTO 00000KT 10SM FEW049 OVC060 10/09 A3008 RMK AO2 RAB33E45 SLP157 P0000 T01000094
KDLN 190653Z AUTO 00000KT 10SM SCT046 OVC055 09/09 A3009 RMK AO2 SLP161 T00940094 401560089
KDLN 190553Z AUTO 00000KT 10SM BKN050 OVC070 09/09 A3008 RMK AO2 SLP162 60022 T00890089 10144 20089 50002
KDLN 190453Z AUTO 00000KT 10SM OVC070 09/09 A3009 RMK AO2 RAE05 SLP163 P0000 T00940094
KDLN 190353Z AUTO 10003KT 10SM -RA OVC060 10/09 A3008 RMK AO2 SLP160 P0002 T01000094
KDLN 190253Z AUTO 16004KT 4SM -RA BR OVC050 09/09 A3008 RMK AO2 RAB0156 SLP162 P0018 60020 T00940089 53016
KDLN 190235Z AUTO 00000KT 1 1/2SM RA BR OVC049 09/09 A3006 RMK AO2 RAB0156 P0012 T00940094
KDLN 190222Z AUTO 00000KT 2SM RA BR BKN047 OVC055 10/09 A3007 RMK AO2 RAB0156 P0007 T01000094
KDLN 190153Z AUTO 23005KT 10SM FEW025 BKN047 OVC055 11/10 A3006 RMK AO2 SLP154 T01060100
KDLN 190053Z AUTO 00000KT 10SM BKN060 OVC075 13/09 A3003 RMK AO2 RAB07E39 SLP141 P0002 T01280094
KDLN 182353Z AUTO 06006KT 10SM SCT050 BKN065 OVC080 15/09 A3002 RMK AO2 SLP135 60006 T01500094 10156 20111 53001
KDLN 182253Z AUTO 06010KT 10SM BKN100 14/11 A3002 RMK AO2 RAE2157 SLP135 P0000 T01390106
KDLN 182153Z AUTO 02006KT 8SM -RA FEW015 BKN055 OVC070 12/11 A3002 RMK AO2 RAB22 SLP137 P0006 T01220106
KDLN 182151Z AUTO 01007KT 6SM -RA BR FEW015 BKN060 OVC075 12/11 A3002 RMK AO2 RAB22 P0006
KDLN 182144Z AUTO 34006KT 2 1/2SM -RA BR FEW015 BKN037 OVC065 12/11 A3002 RMK AO2 RAB22 P0006 T01170106
KDLN 182135Z AUTO 31007KT 1 3/4SM RA BR SCT015 BKN019 OVC036 12/11 A3002 RMK AO2 VIS 3/4V5 RAB22 P0004 T01170106
KDLN 182119Z AUTO 34006KT 10SM BKN018 BKN024 BKN060 13/11 A3002 RMK AO2 T01330106
KDLN 182053Z AUTO 03006KT 10SM CLR 14/09 A3001 RMK AO2 SLP130 60000 T01440094 50002
KDLN 181953Z AUTO 06009KT 10SM SCT047 BKN060 13/11 A3001 RMK AO2 RAB13E28 SLP136 P0000 T01280106
KDLN 181853Z AUTO 03007KT 10SM SCT015 BKN041 OVC055 12/10 A3001 RMK AO2 SLP133 T01220100
KDLN 181805Z AUTO 00000KT 10SM FEW013 BKN060 OVC090 12/10 A3001 RMK AO2 T01170100
KDLN 181753Z AUTO VRB03KT 10SM BKN011 BKN070 OVC090 12/10 A3000 RMK AO2 SLP132 60016 T01220100 10122 20094 50005
KDLN 181749Z AUTO 00000KT 10SM SCT011 BKN070 OVC090 12/10 A3000 RMK AO2
KDLN 181742Z AUTO 00000KT 10SM BKN011 BKN070 OVC085 12/09 A3000 RMK AO2 T01220094
KDLN 181653Z AUTO 00000KT 10SM BKN060 OVC090 11/10 A3000 RMK AO2 SLP131 T01110100
KDLN 181553Z AUTO 00000KT 10SM BKN070 BKN100 11/09 A2999 RMK AO2 RAE18 SLP128 P0002 T01060094
KDLN 181538Z AUTO 00000KT 10SM SCT004 BKN070 OVC100 11/10 A2999 RMK AO2 RAE18 P0002 T01060100
KDLN 181526Z AUTO 06003KT 10SM BKN004 BKN035 OVC100 11/10 A2999 RMK AO2 RAE18 P0002 T01060100
KDLN 181453Z AUTO 02008KT 10SM -RA FEW007 BKN065 OVC075 10/10 A2998 RMK AO2 RAB30 SLP124 P0000 60014 T01000100 58001
KDLN 181353Z AUTO 03004KT 10SM FEW003 OVC075 10/10 A2998 RMK AO2 RAE38 SLP124 P0003 T01000100
KDLN 181325Z AUTO 36006KT 10SM -RA SCT003 OVC060 09/09 A2998 RMK AO2 P0003 T00940094
KDLN 181253Z AUTO 00000KT 4SM -RA BR OVC003 09/09 A2999 RMK AO2 RAE1159B15 SLP127 P0011 T00940094
KDLN 181237Z AUTO 06006KT 5SM RA BR OVC003 09/09 A2999 RMK AO2 RAE1159B15 P0009 T00940094
KDLN 181153Z AUTO 02007KT 10SM -RA OVC005 09/09 A2998 RMK AO2 RAB23 CIG 003V007 SLP123 P0002 60021 70048 T00940094 10100 20094 55004
KDLN 181053Z AUTO 01009KT 10SM OVC002 09/09 A2996 RMK AO2 RAE11 SLP118 P0000 T00940094
KDLN 181001Z AUTO 03011G18KT 10SM -RA BKN004 OVC055 09/09 A2997 RMK AO2 P0000 T00940094
KDLN 180953Z AUTO 04014KT 9SM -RA BKN006 BKN055 OVC070 09/09 A2995 RMK AO2 SLP116 P0011 T00940094
KDLN 180929Z AUTO 05012KT 10SM -RA BKN006 BKN016 OVC055 09/09 A2997 RMK AO2 P0010 T00940094
KDLN 180912Z AUTO 04009KT 5SM -RA BR SCT008 BKN021 OVC029 09/09 A2999 RMK AO2 P0008 T00940094
KDLN 180853Z AUTO 05008KT 6SM -RA BR BKN010 OVC022 09/09 A2999 RMK AO2 SLP129 P0006 60008 T00940094 53006
KDLN 180832Z AUTO 05006KT 10SM -RA BKN011 BKN028 OVC034 09/09 A2998 RMK AO2 P0002 T00940094
KDLN 180753Z AUTO 03011KT 9SM -RA OVC036 09/09 A2997 RMK AO2 RAB26 SLP121 P0001 T00940089
KDLN 180653Z AUTO 04013KT 10SM OVC042 09/09 A2996 RMK AO2 RAB05E22 SLP122 P0001 T00940089 401280067
KDLN 180553Z AUTO 03013KT 10SM SCT039 SCT055 OVC075 09/09 A2997 RMK AO2 SLP126 60011 T00940094 10128 20094 58002
KDLN 180453Z AUTO 36010KT 10SM SCT044 BKN055 OVC110 10/09 A2998 RMK AO2 RAE40 SLP128 P0004 T01000094
KDLN 180353Z AUTO 03006KT 7SM -RA FEW037 SCT046 OVC055 10/09 A2999 RMK AO2 SLP135 P0005 T01000094
KDLN 180253Z AUTO 02007KT 8SM -RA FEW037 OVC065 11/09 A2997 RMK AO2 RAB28 SLP130 P0002 60002 T01060094 53007
KDLN 180153Z AUTO 02011KT 10SM OVC038 12/08 A2995 RMK AO2 SLP121 T01170083
KDLN 180053Z AUTO 02016G22KT 10SM BKN039 OVC100 12/09 A2994 RMK AO2 SLP115 T01220089
KDLN 172353Z AUTO 02015G23KT 10SM OVC044 13/08 A2995 RMK AO2 PK WND 02026/2258 SLP117 T01280083 10128 20094 55011
KDLN 172253Z AUTO 02020G25KT 10SM OVC033 12/08 A2995 RMK AO2 SLP116 T01220083
KDLN 172153Z AUTO 03019KT 10SM OVC031 12/08 A2998 RMK AO2 SLP129 T01170078